sensor_id;sensor_type;location;lat;lon;timestamp;P1;durP1;ratioP1;P2;durP2;ratioP2
35777;SDS011;21899;42.662;23.316;2023-02-28T00:00:20;35.28;;;18.58;;
35777;SDS011;21899;42.662;23.316;2023-02-28T00:02:46;37.63;;;18.38;;
35777;SDS011;21899;42.662;23.316;2023-02-28T00:05:13;40.25;;;19.15;;
35777;SDS011;21899;42.662;23.316;2023-02-28T00:07:40;44.72;;;18.10;;
35777;SDS011;21899;42.662;23.316;2023-02-28T00:10:07;29.90;;;15.63;;
35777;SDS011;21899;42.662;23.316;2023-02-28T00:12:35;34.83;;;16.63;;
35777;SDS011;21899;42.662;23.316;2023-02-28T00:15:02;34.42;;;15.95;;
35777;SDS011;21899;42.662;23.316;2023-02-28T00:17:33;33.38;;;14.25;;
35777;SDS011;21899;42.662;23.316;2023-02-28T00:19:58;31.92;;;15.68;;
35777;SDS011;21899;42.662;23.316;2023-02-28T00:22:27;35.60;;;16.80;;
35777;SDS011;21899;42.662;23.316;2023-02-28T00:24:52;28.17;;;14.88;;
35777;SDS011;21899;42.662;23.316;2023-02-28T00:27:18;24.90;;;13.43;;
35777;SDS011;21899;42.662;23.316;2023-02-28T00:29:43;34.53;;;14.88;;
35777;SDS011;21899;42.662;23.316;2023-02-28T00:32:11;24.65;;;12.95;;
35777;SDS011;21899;42.662;23.316;2023-02-28T00:34:37;23.83;;;12.60;;
35777;SDS011;21899;42.662;23.316;2023-02-28T00:37:06;24.30;;;11.68;;
35777;SDS011;21899;42.662;23.316;2023-02-28T00:39:33;23.60;;;13.15;;
35777;SDS011;21899;42.662;23.316;2023-02-28T00:42:00;24.02;;;13.73;;
35777;SDS011;21899;42.662;23.316;2023-02-28T00:44:25;28.10;;;15.02;;
35777;SDS011;21899;42.662;23.316;2023-02-28T00:46:51;32.60;;;15.18;;
35777;SDS011;21899;42.662;23.316;2023-02-28T00:49:16;34.10;;;15.00;;
35777;SDS011;21899;42.662;23.316;2023-02-28T00:51:42;33.00;;;14.57;;
35777;SDS011;21899;42.662;23.316;2023-02-28T00:54:08;28.00;;;15.20;;
35777;SDS011;21899;42.662;23.316;2023-02-28T00:56:33;27.65;;;14.27;;
35777;SDS011;21899;42.662;23.316;2023-02-28T00:58:58;36.22;;;15.93;;
35777;SDS011;21899;42.662;23.316;2023-02-28T01:01:24;30.80;;;15.15;;
35777;SDS011;21899;42.662;23.316;2023-02-28T01:03:49;37.40;;;16.38;;
35777;SDS011;21899;42.662;23.316;2023-02-28T01:06:14;38.20;;;17.98;;
35777;SDS011;21899;42.662;23.316;2023-02-28T01:08:40;35.85;;;17.80;;
35777;SDS011;21899;42.662;23.316;2023-02-28T01:11:12;40.80;;;17.80;;
35777;SDS011;21899;42.662;23.316;2023-02-28T01:13:39;43.13;;;17.00;;
35777;SDS011;21899;42.662;23.316;2023-02-28T01:16:05;41.88;;;19.17;;
35777;SDS011;21899;42.662;23.316;2023-02-28T01:18:31;41.15;;;19.00;;
35777;SDS011;21899;42.662;23.316;2023-02-28T01:20:56;39.40;;;19.83;;
35777;SDS011;21899;42.662;23.316;2023-02-28T01:23:22;46.30;;;20.52;;
35777;SDS011;21899;42.662;23.316;2023-02-28T01:25:49;49.20;;;22.98;;
35777;SDS011;21899;42.662;23.316;2023-02-28T01:28:15;55.65;;;24.20;;
35777;SDS011;21899;42.662;23.316;2023-02-28T01:30:40;55.30;;;23.08;;
35777;SDS011;21899;42.662;23.316;2023-02-28T01:33:06;47.25;;;20.85;;
35777;SDS011;21899;42.662;23.316;2023-02-28T01:35:32;50.50;;;22.27;;
35777;SDS011;21899;42.662;23.316;2023-02-28T01:37:58;54.53;;;22.52;;
35777;SDS011;21899;42.662;23.316;2023-02-28T01:40:24;58.00;;;23.40;;
35777;SDS011;21899;42.662;23.316;2023-02-28T01:42:49;56.28;;;23.55;;
35777;SDS011;21899;42.662;23.316;2023-02-28T01:45:19;58.60;;;25.55;;
35777;SDS011;21899;42.662;23.316;2023-02-28T01:47:45;55.15;;;24.95;;
35777;SDS011;21899;42.662;23.316;2023-02-28T01:50:14;63.10;;;24.45;;
35777;SDS011;21899;42.662;23.316;2023-02-28T01:52:45;58.95;;;25.33;;
35777;SDS011;21899;42.662;23.316;2023-02-28T01:55:13;55.03;;;25.42;;
35777;SDS011;21899;42.662;23.316;2023-02-28T01:57:42;57.80;;;24.75;;
35777;SDS011;21899;42.662;23.316;2023-02-28T02:00:17;57.92;;;25.02;;
35777;SDS011;21899;42.662;23.316;2023-02-28T02:02:47;51.03;;;24.50;;
35777;SDS011;21899;42.662;23.316;2023-02-28T02:05:17;56.92;;;23.55;;
35777;SDS011;21899;42.662;23.316;2023-02-28T02:07:48;51.00;;;23.92;;
35777;SDS011;21899;42.662;23.316;2023-02-28T02:15:14;58.95;;;25.20;;
35777;SDS011;21899;42.662;23.316;2023-02-28T02:17:56;55.80;;;24.55;;
35777;SDS011;21899;42.662;23.316;2023-02-28T02:23:45;48.97;;;23.95;;
35777;SDS011;21899;42.662;23.316;2023-02-28T02:29:09;50.53;;;22.80;;
35777;SDS011;21899;42.662;23.316;2023-02-28T02:35:11;64.28;;;28.92;;
35777;SDS011;21899;42.662;23.316;2023-02-28T02:40:18;64.10;;;31.58;;
35777;SDS011;21899;42.662;23.316;2023-02-28T02:42:50;62.40;;;29.38;;
35777;SDS011;21899;42.662;23.316;2023-02-28T02:45:25;70.75;;;31.60;;
35777;SDS011;21899;42.662;23.316;2023-02-28T02:48:00;75.40;;;31.13;;
35777;SDS011;21899;42.662;23.316;2023-02-28T02:50:29;62.95;;;31.13;;
35777;SDS011;21899;42.662;23.316;2023-02-28T02:52:59;69.07;;;30.27;;
35777;SDS011;21899;42.662;23.316;2023-02-28T02:55:28;81.75;;;29.30;;
35777;SDS011;21899;42.662;23.316;2023-02-28T02:58:00;114.47;;;31.13;;
35777;SDS011;21899;42.662;23.316;2023-02-28T03:00:36;80.85;;;31.52;;
35777;SDS011;21899;42.662;23.316;2023-02-28T03:03:06;83.47;;;31.88;;
35777;SDS011;21899;42.662;23.316;2023-02-28T03:05:50;91.05;;;33.00;;
35777;SDS011;21899;42.662;23.316;2023-02-28T03:08:16;106.15;;;36.92;;
35777;SDS011;21899;42.662;23.316;2023-02-28T03:10:43;103.70;;;36.80;;
35777;SDS011;21899;42.662;23.316;2023-02-28T03:13:17;115.53;;;34.97;;
35777;SDS011;21899;42.662;23.316;2023-02-28T03:21:34;79.05;;;31.15;;
35777;SDS011;21899;42.662;23.316;2023-02-28T03:26:58;72.47;;;30.20;;
35777;SDS011;21899;42.662;23.316;2023-02-28T03:29:42;69.95;;;30.17;;
35777;SDS011;21899;42.662;23.316;2023-02-28T03:32:24;82.90;;;30.70;;
35777;SDS011;21899;42.662;23.316;2023-02-28T03:34:58;63.38;;;26.85;;
35777;SDS011;21899;42.662;23.316;2023-02-28T03:37:31;62.15;;;27.48;;
35777;SDS011;21899;42.662;23.316;2023-02-28T03:40:10;77.05;;;28.63;;
35777;SDS011;21899;42.662;23.316;2023-02-28T03:42:40;84.88;;;29.48;;
35777;SDS011;21899;42.662;23.316;2023-02-28T03:45:10;67.53;;;26.80;;
35777;SDS011;21899;42.662;23.316;2023-02-28T03:47:44;103.20;;;27.17;;
35777;SDS011;21899;42.662;23.316;2023-02-28T03:50:22;65.72;;;25.83;;
35777;SDS011;21899;42.662;23.316;2023-02-28T03:53:05;67.57;;;27.42;;
35777;SDS011;21899;42.662;23.316;2023-02-28T03:55:43;60.72;;;25.00;;
35777;SDS011;21899;42.662;23.316;2023-02-28T04:01:38;62.38;;;27.20;;
35777;SDS011;21899;42.662;23.316;2023-02-28T04:04:07;66.60;;;27.85;;
35777;SDS011;21899;42.662;23.316;2023-02-28T04:06:36;71.35;;;27.77;;
35777;SDS011;21899;42.662;23.316;2023-02-28T04:09:03;84.25;;;29.67;;
35777;SDS011;21899;42.662;23.316;2023-02-28T04:11:37;68.30;;;25.90;;
35777;SDS011;21899;42.662;23.316;2023-02-28T04:14:04;69.43;;;27.80;;
35777;SDS011;21899;42.662;23.316;2023-02-28T04:16:32;90.00;;;28.27;;
35777;SDS011;21899;42.662;23.316;2023-02-28T04:18:58;109.65;;;30.90;;
35777;SDS011;21899;42.662;23.316;2023-02-28T04:21:27;108.20;;;30.25;;
35777;SDS011;21899;42.662;23.316;2023-02-28T04:23:53;76.18;;;31.85;;
35777;SDS011;21899;42.662;23.316;2023-02-28T04:26:18;94.63;;;29.60;;
35777;SDS011;21899;42.662;23.316;2023-02-28T04:28:44;107.65;;;31.08;;
35777;SDS011;21899;42.662;23.316;2023-02-28T04:31:09;102.85;;;27.95;;
35777;SDS011;21899;42.662;23.316;2023-02-28T04:33:34;116.45;;;28.20;;
35777;SDS011;21899;42.662;23.316;2023-02-28T04:36:07;95.65;;;28.88;;
35777;SDS011;21899;42.662;23.316;2023-02-28T04:38:34;69.38;;;24.60;;
35777;SDS011;21899;42.662;23.316;2023-02-28T04:41:03;88.95;;;27.15;;
35777;SDS011;21899;42.662;23.316;2023-02-28T04:43:29;94.25;;;25.05;;
35777;SDS011;21899;42.662;23.316;2023-02-28T04:45:56;122.10;;;28.77;;
35777;SDS011;21899;42.662;23.316;2023-02-28T04:48:23;80.10;;;27.63;;
35777;SDS011;21899;42.662;23.316;2023-02-28T04:50:49;82.78;;;26.48;;
35777;SDS011;21899;42.662;23.316;2023-02-28T04:53:15;82.13;;;27.27;;
35777;SDS011;21899;42.662;23.316;2023-02-28T04:55:41;81.75;;;26.25;;
35777;SDS011;21899;42.662;23.316;2023-02-28T04:58:06;65.25;;;24.02;;
35777;SDS011;21899;42.662;23.316;2023-02-28T05:00:31;74.45;;;24.15;;
35777;SDS011;21899;42.662;23.316;2023-02-28T05:02:57;87.88;;;27.95;;
35777;SDS011;21899;42.662;23.316;2023-02-28T05:05:22;83.13;;;26.40;;
35777;SDS011;21899;42.662;23.316;2023-02-28T05:07:48;95.38;;;27.58;;
35777;SDS011;21899;42.662;23.316;2023-02-28T05:10:13;70.72;;;27.75;;
35777;SDS011;21899;42.662;23.316;2023-02-28T05:12:38;74.50;;;27.58;;
35777;SDS011;21899;42.662;23.316;2023-02-28T05:15:04;73.10;;;28.55;;
35777;SDS011;21899;42.662;23.316;2023-02-28T05:17:30;76.95;;;28.02;;
35777;SDS011;21899;42.662;23.316;2023-02-28T05:19:55;79.32;;;28.13;;
35777;SDS011;21899;42.662;23.316;2023-02-28T05:22:21;69.53;;;26.45;;
35777;SDS011;21899;42.662;23.316;2023-02-28T05:24:46;71.78;;;26.30;;
35777;SDS011;21899;42.662;23.316;2023-02-28T05:27:12;52.80;;;23.65;;
35777;SDS011;21899;42.662;23.316;2023-02-28T05:29:37;58.08;;;23.95;;
35777;SDS011;21899;42.662;23.316;2023-02-28T05:32:08;52.75;;;23.00;;
35777;SDS011;21899;42.662;23.316;2023-02-28T05:34:35;59.40;;;25.63;;
35777;SDS011;21899;42.662;23.316;2023-02-28T05:37:01;58.40;;;24.48;;
35777;SDS011;21899;42.662;23.316;2023-02-28T05:39:27;60.65;;;23.55;;
35777;SDS011;21899;42.662;23.316;2023-02-28T05:41:52;60.83;;;23.73;;
35777;SDS011;21899;42.662;23.316;2023-02-28T05:44:18;59.80;;;24.95;;
35777;SDS011;21899;42.662;23.316;2023-02-28T05:46:43;56.35;;;24.50;;
35777;SDS011;21899;42.662;23.316;2023-02-28T05:49:08;55.67;;;23.50;;
35777;SDS011;21899;42.662;23.316;2023-02-28T05:51:34;54.55;;;22.48;;
35777;SDS011;21899;42.662;23.316;2023-02-28T05:54:01;52.08;;;21.70;;
35777;SDS011;21899;42.662;23.316;2023-02-28T05:56:27;47.38;;;21.20;;
35777;SDS011;21899;42.662;23.316;2023-02-28T05:58:53;68.82;;;28.60;;
35777;SDS011;21899;42.662;23.316;2023-02-28T06:04:07;58.85;;;24.60;;
35777;SDS011;21899;42.662;23.316;2023-02-28T06:06:34;54.88;;;22.20;;
35777;SDS011;21899;42.662;23.316;2023-02-28T06:09:01;56.20;;;25.05;;
35777;SDS011;21899;42.662;23.316;2023-02-28T06:11:26;57.15;;;24.67;;
35777;SDS011;21899;42.662;23.316;2023-02-28T06:14:01;59.72;;;26.13;;
35777;SDS011;21899;42.662;23.316;2023-02-28T06:16:28;59.95;;;26.02;;
35777;SDS011;21899;42.662;23.316;2023-02-28T06:18:57;68.45;;;32.60;;
35777;SDS011;21899;42.662;23.316;2023-02-28T06:21:23;67.07;;;29.08;;
35777;SDS011;21899;42.662;23.316;2023-02-28T06:23:49;64.10;;;28.20;;
35777;SDS011;21899;42.662;23.316;2023-02-28T06:26:14;71.20;;;29.70;;
35777;SDS011;21899;42.662;23.316;2023-02-28T06:28:39;63.72;;;29.50;;
35777;SDS011;21899;42.662;23.316;2023-02-28T06:31:06;64.53;;;29.45;;
35777;SDS011;21899;42.662;23.316;2023-02-28T06:33:36;73.50;;;30.90;;
35777;SDS011;21899;42.662;23.316;2023-02-28T06:36:03;65.78;;;30.20;;
35777;SDS011;21899;42.662;23.316;2023-02-28T06:38:29;63.17;;;28.02;;
35777;SDS011;21899;42.662;23.316;2023-02-28T06:40:56;58.88;;;28.25;;
35777;SDS011;21899;42.662;23.316;2023-02-28T06:43:23;64.50;;;27.10;;
35777;SDS011;21899;42.662;23.316;2023-02-28T06:45:49;64.25;;;30.45;;
35777;SDS011;21899;42.662;23.316;2023-02-28T06:48:15;55.05;;;26.92;;
35777;SDS011;21899;42.662;23.316;2023-02-28T06:50:41;56.80;;;26.55;;
35777;SDS011;21899;42.662;23.316;2023-02-28T06:53:06;49.83;;;24.20;;
35777;SDS011;21899;42.662;23.316;2023-02-28T06:55:31;51.88;;;23.85;;
35777;SDS011;21899;42.662;23.316;2023-02-28T06:57:57;49.03;;;25.02;;
35777;SDS011;21899;42.662;23.316;2023-02-28T07:00:23;51.28;;;23.92;;
35777;SDS011;21899;42.662;23.316;2023-02-28T07:02:49;55.38;;;24.40;;
35777;SDS011;21899;42.662;23.316;2023-02-28T07:05:15;52.78;;;24.83;;
35777;SDS011;21899;42.662;23.316;2023-02-28T07:07:40;46.47;;;22.75;;
35777;SDS011;21899;42.662;23.316;2023-02-28T07:10:09;52.45;;;24.20;;
35777;SDS011;21899;42.662;23.316;2023-02-28T07:12:38;49.30;;;24.45;;
35777;SDS011;21899;42.662;23.316;2023-02-28T07:15:04;55.42;;;24.98;;
35777;SDS011;21899;42.662;23.316;2023-02-28T07:17:30;56.63;;;24.35;;
35777;SDS011;21899;42.662;23.316;2023-02-28T07:19:55;52.55;;;25.75;;
35777;SDS011;21899;42.662;23.316;2023-02-28T07:22:21;59.55;;;25.17;;
35777;SDS011;21899;42.662;23.316;2023-02-28T07:24:46;55.38;;;25.77;;
35777;SDS011;21899;42.662;23.316;2023-02-28T07:27:12;65.20;;;26.50;;
35777;SDS011;21899;42.662;23.316;2023-02-28T07:29:37;55.03;;;25.77;;
35777;SDS011;21899;42.662;23.316;2023-02-28T07:32:03;61.53;;;26.70;;
35777;SDS011;21899;42.662;23.316;2023-02-28T07:34:28;50.38;;;24.15;;
35777;SDS011;21899;42.662;23.316;2023-02-28T07:36:54;51.92;;;26.45;;
35777;SDS011;21899;42.662;23.316;2023-02-28T07:39:20;51.10;;;25.80;;
35777;SDS011;21899;42.662;23.316;2023-02-28T07:41:46;42.97;;;23.30;;
35777;SDS011;21899;42.662;23.316;2023-02-28T07:44:12;52.95;;;24.95;;
35777;SDS011;21899;42.662;23.316;2023-02-28T07:46:38;50.85;;;23.88;;
35777;SDS011;21899;42.662;23.316;2023-02-28T07:49:04;49.75;;;24.45;;
35777;SDS011;21899;42.662;23.316;2023-02-28T07:51:30;52.92;;;25.48;;
35777;SDS011;21899;42.662;23.316;2023-02-28T07:53:56;52.15;;;25.98;;
35777;SDS011;21899;42.662;23.316;2023-02-28T07:56:21;50.50;;;25.15;;
35777;SDS011;21899;42.662;23.316;2023-02-28T07:58:47;48.53;;;25.25;;
35777;SDS011;21899;42.662;23.316;2023-02-28T08:01:12;46.20;;;23.98;;
35777;SDS011;21899;42.662;23.316;2023-02-28T08:03:38;52.67;;;26.23;;
35777;SDS011;21899;42.662;23.316;2023-02-28T08:06:05;48.55;;;24.30;;
35777;SDS011;21899;42.662;23.316;2023-02-28T08:08:31;56.83;;;26.10;;
35777;SDS011;21899;42.662;23.316;2023-02-28T08:10:58;51.67;;;25.17;;
35777;SDS011;21899;42.662;23.316;2023-02-28T08:13:25;48.80;;;24.10;;
35777;SDS011;21899;42.662;23.316;2023-02-28T08:15:52;44.95;;;24.13;;
35777;SDS011;21899;42.662;23.316;2023-02-28T08:18:19;55.97;;;24.48;;
35777;SDS011;21899;42.662;23.316;2023-02-28T08:20:44;53.28;;;22.77;;
35777;SDS011;21899;42.662;23.316;2023-02-28T08:23:09;44.00;;;22.25;;
35777;SDS011;21899;42.662;23.316;2023-02-28T08:25:35;52.22;;;23.63;;
35777;SDS011;21899;42.662;23.316;2023-02-28T08:28:00;51.92;;;25.17;;
35777;SDS011;21899;42.662;23.316;2023-02-28T08:30:26;48.95;;;23.65;;
35777;SDS011;21899;42.662;23.316;2023-02-28T08:32:51;52.03;;;24.40;;
35777;SDS011;21899;42.662;23.316;2023-02-28T08:35:16;41.28;;;22.65;;
35777;SDS011;21899;42.662;23.316;2023-02-28T08:37:42;46.38;;;24.77;;
35777;SDS011;21899;42.662;23.316;2023-02-28T08:40:08;43.88;;;22.60;;
35777;SDS011;21899;42.662;23.316;2023-02-28T08:42:34;49.85;;;24.45;;
35777;SDS011;21899;42.662;23.316;2023-02-28T08:44:59;45.85;;;23.60;;
35777;SDS011;21899;42.662;23.316;2023-02-28T08:47:25;48.92;;;25.75;;
35777;SDS011;21899;42.662;23.316;2023-02-28T08:49:50;53.70;;;25.80;;
35777;SDS011;21899;42.662;23.316;2023-02-28T08:52:15;46.58;;;25.23;;
35777;SDS011;21899;42.662;23.316;2023-02-28T08:54:41;49.97;;;25.33;;
35777;SDS011;21899;42.662;23.316;2023-02-28T08:57:06;54.42;;;27.30;;
35777;SDS011;21899;42.662;23.316;2023-02-28T08:59:31;58.65;;;28.45;;
35777;SDS011;21899;42.662;23.316;2023-02-28T09:01:57;56.05;;;29.63;;
35777;SDS011;21899;42.662;23.316;2023-02-28T09:04:23;58.38;;;29.52;;
35777;SDS011;21899;42.662;23.316;2023-02-28T09:06:48;53.90;;;30.60;;
35777;SDS011;21899;42.662;23.316;2023-02-28T09:09:14;66.13;;;30.70;;
35777;SDS011;21899;42.662;23.316;2023-02-28T09:11:40;56.50;;;29.88;;
35777;SDS011;21899;42.662;23.316;2023-02-28T09:14:06;66.07;;;30.20;;
35777;SDS011;21899;42.662;23.316;2023-02-28T09:16:32;69.30;;;34.90;;
35777;SDS011;21899;42.662;23.316;2023-02-28T09:18:59;65.00;;;29.75;;
35777;SDS011;21899;42.662;23.316;2023-02-28T09:21:25;63.42;;;29.27;;
35777;SDS011;21899;42.662;23.316;2023-02-28T09:23:50;63.58;;;30.20;;
35777;SDS011;21899;42.662;23.316;2023-02-28T09:26:20;65.22;;;30.83;;
35777;SDS011;21899;42.662;23.316;2023-02-28T09:28:47;61.70;;;31.92;;
35777;SDS011;21899;42.662;23.316;2023-02-28T09:31:14;58.00;;;28.65;;
35777;SDS011;21899;42.662;23.316;2023-02-28T09:33:41;71.45;;;31.23;;
35777;SDS011;21899;42.662;23.316;2023-02-28T09:36:07;63.97;;;30.40;;
35777;SDS011;21899;42.662;23.316;2023-02-28T09:38:33;57.15;;;28.73;;
35777;SDS011;21899;42.662;23.316;2023-02-28T09:41:00;63.13;;;29.88;;
35777;SDS011;21899;42.662;23.316;2023-02-28T09:43:34;54.03;;;28.05;;
35777;SDS011;21899;42.662;23.316;2023-02-28T09:48:44;58.63;;;28.23;;
35777;SDS011;21899;42.662;23.316;2023-02-28T09:53:51;52.42;;;25.88;;
35777;SDS011;21899;42.662;23.316;2023-02-28T09:56:22;58.88;;;29.10;;
35777;SDS011;21899;42.662;23.316;2023-02-28T09:59:01;59.67;;;29.08;;
35777;SDS011;21899;42.662;23.316;2023-02-28T10:04:14;81.50;;;34.58;;
35777;SDS011;21899;42.662;23.316;2023-02-28T10:06:51;56.95;;;29.17;;
35777;SDS011;21899;42.662;23.316;2023-02-28T10:09:23;66.38;;;30.15;;
35777;SDS011;21899;42.662;23.316;2023-02-28T10:11:52;45.30;;;22.20;;
35777;SDS011;21899;42.662;23.316;2023-02-28T10:14:22;31.20;;;17.17;;
35777;SDS011;21899;42.662;23.316;2023-02-28T10:19:46;20.95;;;11.98;;
35777;SDS011;21899;42.662;23.316;2023-02-28T10:22:34;29.60;;;14.60;;
35777;SDS011;21899;42.662;23.316;2023-02-28T10:25:24;23.90;;;11.43;;
35777;SDS011;21899;42.662;23.316;2023-02-28T10:27:57;26.10;;;12.98;;
35777;SDS011;21899;42.662;23.316;2023-02-28T10:30:26;30.80;;;11.80;;
35777;SDS011;21899;42.662;23.316;2023-02-28T10:32:52;25.77;;;13.30;;
35777;SDS011;21899;42.662;23.316;2023-02-28T10:35:20;28.90;;;12.05;;
35777;SDS011;21899;42.662;23.316;2023-02-28T10:37:48;27.50;;;11.90;;
35777;SDS011;21899;42.662;23.316;2023-02-28T10:43:20;25.77;;;12.73;;
35777;SDS011;21899;42.662;23.316;2023-02-28T10:45:39;34.65;;;12.82;;
35777;SDS011;21899;42.662;23.316;2023-02-28T10:58:50;26.40;;;11.43;;
35777;SDS011;21899;42.662;23.316;2023-02-28T11:09:28;23.52;;;11.25;;
35777;SDS011;21899;42.662;23.316;2023-02-28T11:11:57;27.40;;;12.52;;
35777;SDS011;21899;42.662;23.316;2023-02-28T11:14:30;30.00;;;12.43;;
35777;SDS011;21899;42.662;23.316;2023-02-28T11:17:00;29.33;;;12.55;;
35777;SDS011;21899;42.662;23.316;2023-02-28T11:19:40;27.92;;;12.18;;
35777;SDS011;21899;42.662;23.316;2023-02-28T11:22:11;23.00;;;11.02;;
35777;SDS011;21899;42.662;23.316;2023-02-28T11:24:50;30.70;;;12.07;;
35777;SDS011;21899;42.662;23.316;2023-02-28T11:29:56;27.52;;;12.32;;
35777;SDS011;21899;42.662;23.316;2023-02-28T11:32:26;33.83;;;13.45;;
35777;SDS011;21899;42.662;23.316;2023-02-28T11:37:37;28.73;;;12.55;;
35777;SDS011;21899;42.662;23.316;2023-02-28T11:40:12;27.98;;;13.80;;
35777;SDS011;21899;42.662;23.316;2023-02-28T11:50:49;33.97;;;14.15;;
35777;SDS011;21899;42.662;23.316;2023-02-28T12:06:46;32.58;;;15.05;;
35777;SDS011;21899;42.662;23.316;2023-02-28T12:09:27;31.98;;;13.40;;
35777;SDS011;21899;42.662;23.316;2023-02-28T12:17:27;34.78;;;13.52;;
35777;SDS011;21899;42.662;23.316;2023-02-28T12:20:08;28.30;;;12.77;;
35777;SDS011;21899;42.662;23.316;2023-02-28T12:25:24;30.20;;;13.55;;
35777;SDS011;21899;42.662;23.316;2023-02-28T12:28:06;34.40;;;14.02;;
35777;SDS011;21899;42.662;23.316;2023-02-28T12:30:36;24.50;;;13.13;;
35777;SDS011;21899;42.662;23.316;2023-02-28T12:33:12;32.20;;;13.07;;
35777;SDS011;21899;42.662;23.316;2023-02-28T12:35:45;25.98;;;11.85;;
35777;SDS011;21899;42.662;23.316;2023-02-28T12:38:15;37.28;;;12.63;;
35777;SDS011;21899;42.662;23.316;2023-02-28T12:40:50;27.40;;;12.05;;
35777;SDS011;21899;42.662;23.316;2023-02-28T12:45:50;29.92;;;12.27;;
35777;SDS011;21899;42.662;23.316;2023-02-28T12:48:30;22.52;;;12.43;;
35777;SDS011;21899;42.662;23.316;2023-02-28T12:51:02;28.83;;;13.10;;
35777;SDS011;21899;42.662;23.316;2023-02-28T12:53:31;29.45;;;11.75;;
35777;SDS011;21899;42.662;23.316;2023-02-28T12:56:29;26.83;;;12.03;;
35777;SDS011;21899;42.662;23.316;2023-02-28T12:59:03;33.67;;;12.65;;
35777;SDS011;21899;42.662;23.316;2023-02-28T13:10:06;25.92;;;10.98;;
35777;SDS011;21899;42.662;23.316;2023-02-28T13:12:33;24.23;;;10.88;;
35777;SDS011;21899;42.662;23.316;2023-02-28T13:15:04;31.55;;;13.30;;
35777;SDS011;21899;42.662;23.316;2023-02-28T13:17:36;32.10;;;12.70;;
35777;SDS011;21899;42.662;23.316;2023-02-28T13:20:03;28.90;;;12.80;;
35777;SDS011;21899;42.662;23.316;2023-02-28T13:22:40;30.83;;;14.07;;
35777;SDS011;21899;42.662;23.316;2023-02-28T13:25:49;29.30;;;13.02;;
35777;SDS011;21899;42.662;23.316;2023-02-28T13:28:00;32.47;;;11.20;;
35777;SDS011;21899;42.662;23.316;2023-02-28T13:38:39;21.25;;;10.90;;
35777;SDS011;21899;42.662;23.316;2023-02-28T14:00:01;20.92;;;8.80;;
35777;SDS011;21899;42.662;23.316;2023-02-28T14:05:31;31.50;;;10.75;;
35777;SDS011;21899;42.662;23.316;2023-02-28T14:07:59;28.20;;;10.68;;
35777;SDS011;21899;42.662;23.316;2023-02-28T14:10:32;39.22;;;10.85;;
35777;SDS011;21899;42.662;23.316;2023-02-28T14:13:13;26.20;;;10.85;;
35777;SDS011;21899;42.662;23.316;2023-02-28T14:16:02;27.13;;;9.93;;
35777;SDS011;21899;42.662;23.316;2023-02-28T14:18:33;21.27;;;8.63;;
35777;SDS011;21899;42.662;23.316;2023-02-28T14:24:09;28.60;;;9.90;;
35777;SDS011;21899;42.662;23.316;2023-02-28T14:26:43;25.60;;;9.95;;
35777;SDS011;21899;42.662;23.316;2023-02-28T14:32:13;23.05;;;9.93;;
35777;SDS011;21899;42.662;23.316;2023-02-28T14:37:20;23.38;;;9.95;;
35777;SDS011;21899;42.662;23.316;2023-02-28T14:39:51;31.60;;;11.27;;
35777;SDS011;21899;42.662;23.316;2023-02-28T14:42:27;24.88;;;11.35;;
35777;SDS011;21899;42.662;23.316;2023-02-28T14:45:16;32.92;;;12.10;;
35777;SDS011;21899;42.662;23.316;2023-02-28T14:47:43;24.30;;;10.93;;
35777;SDS011;21899;42.662;23.316;2023-02-28T14:50:17;24.70;;;10.80;;
35777;SDS011;21899;42.662;23.316;2023-02-28T14:52:54;29.38;;;10.70;;
35777;SDS011;21899;42.662;23.316;2023-02-28T14:55:23;23.10;;;9.57;;
35777;SDS011;21899;42.662;23.316;2023-02-28T14:58:03;32.47;;;10.50;;
35777;SDS011;21899;42.662;23.316;2023-02-28T15:00:46;24.95;;;11.07;;
35777;SDS011;21899;42.662;23.316;2023-02-28T15:03:19;22.30;;;9.77;;
35777;SDS011;21899;42.662;23.316;2023-02-28T15:05:55;22.25;;;10.20;;
35777;SDS011;21899;42.662;23.316;2023-02-28T15:08:22;26.17;;;9.43;;
35777;SDS011;21899;42.662;23.316;2023-02-28T15:11:01;26.70;;;9.98;;
35777;SDS011;21899;42.662;23.316;2023-02-28T15:13:40;28.88;;;11.43;;
35777;SDS011;21899;42.662;23.316;2023-02-28T15:16:21;26.00;;;11.23;;
35777;SDS011;21899;42.662;23.316;2023-02-28T15:19:23;20.30;;;9.93;;
35777;SDS011;21899;42.662;23.316;2023-02-28T15:21:55;27.27;;;11.88;;
35777;SDS011;21899;42.662;23.316;2023-02-28T15:29:58;22.17;;;9.25;;
35777;SDS011;21899;42.662;23.316;2023-02-28T15:32:33;21.77;;;10.40;;
35777;SDS011;21899;42.662;23.316;2023-02-28T15:35:45;27.02;;;9.25;;
35777;SDS011;21899;42.662;23.316;2023-02-28T15:37:54;20.85;;;9.15;;
35777;SDS011;21899;42.662;23.316;2023-02-28T15:43:05;24.17;;;9.73;;
35777;SDS011;21899;42.662;23.316;2023-02-28T15:48:52;27.17;;;9.20;;
35777;SDS011;21899;42.662;23.316;2023-02-28T15:53:48;23.15;;;10.23;;
35777;SDS011;21899;42.662;23.316;2023-02-28T15:58:58;20.13;;;9.15;;
35777;SDS011;21899;42.662;23.316;2023-02-28T16:01:30;27.17;;;9.00;;
35777;SDS011;21899;42.662;23.316;2023-02-28T16:03:59;18.98;;;8.02;;
35777;SDS011;21899;42.662;23.316;2023-02-28T16:09:02;17.50;;;8.55;;
35777;SDS011;21899;42.662;23.316;2023-02-28T16:11:29;15.48;;;7.63;;
35777;SDS011;21899;42.662;23.316;2023-02-28T16:13:55;16.52;;;7.70;;
35777;SDS011;21899;42.662;23.316;2023-02-28T16:16:22;16.60;;;8.32;;
35777;SDS011;21899;42.662;23.316;2023-02-28T16:18:49;17.50;;;7.20;;
35777;SDS011;21899;42.662;23.316;2023-02-28T16:21:15;20.90;;;9.95;;
35777;SDS011;21899;42.662;23.316;2023-02-28T16:23:41;18.90;;;9.88;;
35777;SDS011;21899;42.662;23.316;2023-02-28T16:26:06;21.52;;;9.35;;
35777;SDS011;21899;42.662;23.316;2023-02-28T16:28:34;17.65;;;8.38;;
35777;SDS011;21899;42.662;23.316;2023-02-28T16:31:02;16.63;;;8.43;;
35777;SDS011;21899;42.662;23.316;2023-02-28T16:33:30;21.27;;;8.00;;
35777;SDS011;21899;42.662;23.316;2023-02-28T16:35:57;16.20;;;7.88;;
35777;SDS011;21899;42.662;23.316;2023-02-28T16:38:23;14.13;;;7.05;;
35777;SDS011;21899;42.662;23.316;2023-02-28T16:40:50;15.45;;;7.55;;
35777;SDS011;21899;42.662;23.316;2023-02-28T16:43:25;17.00;;;8.00;;
35777;SDS011;21899;42.662;23.316;2023-02-28T16:45:55;14.98;;;7.05;;
35777;SDS011;21899;42.662;23.316;2023-02-28T16:48:23;21.98;;;7.90;;
35777;SDS011;21899;42.662;23.316;2023-02-28T16:50:49;15.25;;;7.72;;
35777;SDS011;21899;42.662;23.316;2023-02-28T16:53:14;14.35;;;7.20;;
35777;SDS011;21899;42.662;23.316;2023-02-28T16:55:39;19.80;;;8.60;;
35777;SDS011;21899;42.662;23.316;2023-02-28T16:58:05;16.67;;;7.80;;
35777;SDS011;21899;42.662;23.316;2023-02-28T17:00:31;15.70;;;7.28;;
35777;SDS011;21899;42.662;23.316;2023-02-28T17:02:57;15.75;;;8.23;;
35777;SDS011;21899;42.662;23.316;2023-02-28T17:05:24;15.30;;;7.13;;
35777;SDS011;21899;42.662;23.316;2023-02-28T17:07:50;15.25;;;6.38;;
35777;SDS011;21899;42.662;23.316;2023-02-28T17:10:20;12.65;;;6.05;;